sensor_id;sensor_type;location;lat;lon;timestamp;P1;durP1;ratioP1;P2;durP2;ratioP2
58982;SDS011;44771;49.982;8.560;2022-12-18T00:03:08;92.30;;;31.17;;
58982;SDS011;44771;49.982;8.560;2022-12-18T00:13:12;80.93;;;29.52;;
58982;SDS011;44771;49.982;8.560;2022-12-18T00:18:15;72.78;;;28.95;;
58982;SDS011;44771;49.982;8.560;2022-12-18T00:23:20;79.20;;;29.87;;
58982;SDS011;44771;49.982;8.560;2022-12-18T00:28:22;80.47;;;31.10;;
58982;SDS011;44771;49.982;8.560;2022-12-18T00:33:25;67.43;;;27.60;;
58982;SDS011;44771;49.982;8.560;2022-12-18T00:38:27;83.10;;;28.12;;
58982;SDS011;44771;49.982;8.560;2022-12-18T00:43:28;68.10;;;28.23;;
58982;SDS011;44771;49.982;8.560;2022-12-18T00:48:32;58.40;;;27.77;;
58982;SDS011;44771;49.982;8.560;2022-12-18T00:58:35;62.35;;;28.58;;
58982;SDS011;44771;49.982;8.560;2022-12-18T01:03:38;64.78;;;27.67;;
58982;SDS011;44771;49.982;8.560;2022-12-18T01:08:41;66.60;;;28.23;;
58982;SDS011;44771;49.982;8.560;2022-12-18T01:13:43;65.20;;;29.48;;
58982;SDS011;44771;49.982;8.560;2022-12-18T01:18:47;60.33;;;27.62;;
58982;SDS011;44771;49.982;8.560;2022-12-18T01:23:53;75.45;;;29.70;;
58982;SDS011;44771;49.982;8.560;2022-12-18T01:28:56;68.35;;;25.95;;
58982;SDS011;44771;49.982;8.560;2022-12-18T01:34:00;61.25;;;25.35;;
58982;SDS011;44771;49.982;8.560;2022-12-18T01:39:03;75.55;;;29.37;;
58982;SDS011;44771;49.982;8.560;2022-12-18T01:49:43;62.47;;;28.35;;
58982;SDS011;44771;49.982;8.560;2022-12-18T01:54:45;64.95;;;26.83;;
58982;SDS011;44771;49.982;8.560;2022-12-18T01:59:49;69.15;;;29.55;;
58982;SDS011;44771;49.982;8.560;2022-12-18T02:04:55;58.17;;;24.85;;
58982;SDS011;44771;49.982;8.560;2022-12-18T02:09:58;83.20;;;29.12;;
58982;SDS011;44771;49.982;8.560;2022-12-18T02:15:05;73.12;;;27.05;;
58982;SDS011;44771;49.982;8.560;2022-12-18T02:20:16;80.55;;;26.50;;
58982;SDS011;44771;49.982;8.560;2022-12-18T02:25:24;62.60;;;26.85;;
58982;SDS011;44771;49.982;8.560;2022-12-18T02:30:41;69.25;;;27.50;;
58982;SDS011;44771;49.982;8.560;2022-12-18T02:35:45;69.97;;;26.42;;
58982;SDS011;44771;49.982;8.560;2022-12-18T02:40:48;56.25;;;24.40;;
58982;SDS011;44771;49.982;8.560;2022-12-18T02:45:53;55.80;;;27.70;;
58982;SDS011;44771;49.982;8.560;2022-12-18T02:50:59;60.88;;;26.37;;
58982;SDS011;44771;49.982;8.560;2022-12-18T02:56:05;54.50;;;24.55;;
58982;SDS011;44771;49.982;8.560;2022-12-18T03:01:13;62.22;;;30.05;;
58982;SDS011;44771;49.982;8.560;2022-12-18T03:06:21;60.35;;;25.70;;
58982;SDS011;44771;49.982;8.560;2022-12-18T03:11:28;61.13;;;24.83;;
58982;SDS011;44771;49.982;8.560;2022-12-18T03:16:36;56.65;;;24.65;;
58982;SDS011;44771;49.982;8.560;2022-12-18T03:21:39;51.25;;;27.05;;
58982;SDS011;44771;49.982;8.560;2022-12-18T03:26:44;71.32;;;26.58;;
58982;SDS011;44771;49.982;8.560;2022-12-18T03:31:53;59.17;;;25.40;;
58982;SDS011;44771;49.982;8.560;2022-12-18T03:36:57;68.70;;;27.50;;
58982;SDS011;44771;49.982;8.560;2022-12-18T03:42:01;63.90;;;28.55;;
58982;SDS011;44771;49.982;8.560;2022-12-18T03:47:12;61.90;;;24.90;;
58982;SDS011;44771;49.982;8.560;2022-12-18T03:52:18;69.12;;;28.27;;
58982;SDS011;44771;49.982;8.560;2022-12-18T03:57:27;56.35;;;25.12;;
58982;SDS011;44771;49.982;8.560;2022-12-18T04:02:32;55.65;;;25.30;;
58982;SDS011;44771;49.982;8.560;2022-12-18T04:07:36;57.08;;;24.77;;
58982;SDS011;44771;49.982;8.560;2022-12-18T04:12:39;64.93;;;25.25;;
58982;SDS011;44771;49.982;8.560;2022-12-18T04:17:43;64.43;;;27.98;;
58982;SDS011;44771;49.982;8.560;2022-12-18T04:22:48;72.45;;;27.27;;
58982;SDS011;44771;49.982;8.560;2022-12-18T04:27:50;62.50;;;27.67;;
58982;SDS011;44771;49.982;8.560;2022-12-18T04:32:53;65.87;;;23.70;;
58982;SDS011;44771;49.982;8.560;2022-12-18T04:37:55;53.87;;;27.05;;
58982;SDS011;44771;49.982;8.560;2022-12-18T04:42:56;58.08;;;28.20;;
58982;SDS011;44771;49.982;8.560;2022-12-18T04:48:00;62.33;;;27.05;;
58982;SDS011;44771;49.982;8.560;2022-12-18T04:53:02;63.72;;;29.15;;
58982;SDS011;44771;49.982;8.560;2022-12-18T04:58:04;76.30;;;32.30;;
58982;SDS011;44771;49.982;8.560;2022-12-18T05:03:07;66.55;;;27.80;;
58982;SDS011;44771;49.982;8.560;2022-12-18T05:08:09;76.80;;;30.17;;
58982;SDS011;44771;49.982;8.560;2022-12-18T05:13:11;71.60;;;30.08;;
58982;SDS011;44771;49.982;8.560;2022-12-18T05:18:14;82.30;;;29.80;;
58982;SDS011;44771;49.982;8.560;2022-12-18T05:23:15;84.70;;;29.73;;
58982;SDS011;44771;49.982;8.560;2022-12-18T05:28:17;66.20;;;29.95;;
58982;SDS011;44771;49.982;8.560;2022-12-18T05:33:21;66.45;;;27.33;;
58982;SDS011;44771;49.982;8.560;2022-12-18T05:38:24;68.35;;;28.52;;
58982;SDS011;44771;49.982;8.560;2022-12-18T05:43:26;68.15;;;28.60;;
58982;SDS011;44771;49.982;8.560;2022-12-18T05:48:30;67.25;;;29.85;;
58982;SDS011;44771;49.982;8.560;2022-12-18T05:53:31;61.33;;;27.75;;
58982;SDS011;44771;49.982;8.560;2022-12-18T05:58:33;62.50;;;29.80;;
58982;SDS011;44771;49.982;8.560;2022-12-18T06:03:36;63.30;;;29.92;;
58982;SDS011;44771;49.982;8.560;2022-12-18T06:08:38;80.78;;;32.10;;
58982;SDS011;44771;49.982;8.560;2022-12-18T06:13:46;63.78;;;30.85;;
58982;SDS011;44771;49.982;8.560;2022-12-18T06:18:57;73.47;;;30.55;;
58982;SDS011;44771;49.982;8.560;2022-12-18T06:24:00;76.80;;;33.40;;
58982;SDS011;44771;49.982;8.560;2022-12-18T06:29:01;81.05;;;31.25;;
58982;SDS011;44771;49.982;8.560;2022-12-18T06:34:05;71.00;;;31.65;;
58982;SDS011;44771;49.982;8.560;2022-12-18T06:39:06;71.68;;;31.02;;
58982;SDS011;44771;49.982;8.560;2022-12-18T06:44:09;69.50;;;29.93;;
58982;SDS011;44771;49.982;8.560;2022-12-18T06:49:12;64.80;;;30.35;;
58982;SDS011;44771;49.982;8.560;2022-12-18T06:54:15;66.40;;;31.52;;
58982;SDS011;44771;49.982;8.560;2022-12-18T06:59:16;70.43;;;31.37;;
58982;SDS011;44771;49.982;8.560;2022-12-18T07:04:20;69.47;;;32.00;;
58982;SDS011;44771;49.982;8.560;2022-12-18T07:09:21;74.40;;;30.83;;
58982;SDS011;44771;49.982;8.560;2022-12-18T07:14:23;82.25;;;30.88;;
58982;SDS011;44771;49.982;8.560;2022-12-18T07:19:26;62.13;;;28.65;;
58982;SDS011;44771;49.982;8.560;2022-12-18T07:24:29;67.20;;;29.35;;
58982;SDS011;44771;49.982;8.560;2022-12-18T07:29:31;77.87;;;29.55;;
58982;SDS011;44771;49.982;8.560;2022-12-18T07:34:34;63.47;;;30.75;;
58982;SDS011;44771;49.982;8.560;2022-12-18T07:39:35;57.03;;;28.87;;
58982;SDS011;44771;49.982;8.560;2022-12-18T07:44:37;66.43;;;29.77;;
58982;SDS011;44771;49.982;8.560;2022-12-18T07:49:40;72.80;;;30.62;;
58982;SDS011;44771;49.982;8.560;2022-12-18T07:54:42;58.28;;;26.73;;
58982;SDS011;44771;49.982;8.560;2022-12-18T07:59:43;61.60;;;28.00;;
58982;SDS011;44771;49.982;8.560;2022-12-18T08:04:46;70.05;;;29.75;;
58982;SDS011;44771;49.982;8.560;2022-12-18T08:09:48;55.25;;;28.50;;
58982;SDS011;44771;49.982;8.560;2022-12-18T08:14:50;54.65;;;28.55;;
58982;SDS011;44771;49.982;8.560;2022-12-18T08:19:53;62.78;;;29.65;;
58982;SDS011;44771;49.982;8.560;2022-12-18T08:24:55;64.57;;;27.85;;
58982;SDS011;44771;49.982;8.560;2022-12-18T08:29:56;61.15;;;27.25;;
58982;SDS011;44771;49.982;8.560;2022-12-18T08:35:00;69.05;;;30.10;;
58982;SDS011;44771;49.982;8.560;2022-12-18T08:40:02;67.30;;;29.35;;
58982;SDS011;44771;49.982;8.560;2022-12-18T08:45:04;64.45;;;30.40;;
58982;SDS011;44771;49.982;8.560;2022-12-18T08:50:09;56.37;;;27.33;;
58982;SDS011;44771;49.982;8.560;2022-12-18T08:55:10;56.92;;;28.08;;
58982;SDS011;44771;49.982;8.560;2022-12-18T09:00:13;63.70;;;31.40;;
58982;SDS011;44771;49.982;8.560;2022-12-18T09:05:16;71.55;;;31.85;;
58982;SDS011;44771;49.982;8.560;2022-12-18T09:10:18;66.57;;;27.33;;
58982;SDS011;44771;49.982;8.560;2022-12-18T09:15:20;61.83;;;29.95;;
58982;SDS011;44771;49.982;8.560;2022-12-18T09:20:24;66.82;;;29.67;;
58982;SDS011;44771;49.982;8.560;2022-12-18T09:25:25;72.10;;;29.83;;
58982;SDS011;44771;49.982;8.560;2022-12-18T09:30:27;66.72;;;29.98;;
58982;SDS011;44771;49.982;8.560;2022-12-18T09:35:30;78.97;;;31.50;;
58982;SDS011;44771;49.982;8.560;2022-12-18T09:40:33;64.80;;;30.90;;
58982;SDS011;44771;49.982;8.560;2022-12-18T09:45:38;75.37;;;30.58;;
58982;SDS011;44771;49.982;8.560;2022-12-18T09:50:45;74.40;;;32.92;;
58982;SDS011;44771;49.982;8.560;2022-12-18T09:55:49;76.82;;;34.72;;
58982;SDS011;44771;49.982;8.560;2022-12-18T10:00:52;81.47;;;35.10;;
58982;SDS011;44771;49.982;8.560;2022-12-18T10:05:58;73.45;;;33.65;;
58982;SDS011;44771;49.982;8.560;2022-12-18T10:11:22;81.47;;;34.25;;
58982;SDS011;44771;49.982;8.560;2022-12-18T10:16:41;74.22;;;33.33;;
58982;SDS011;44771;49.982;8.560;2022-12-18T10:21:55;69.60;;;32.83;;
58982;SDS011;44771;49.982;8.560;2022-12-18T10:27:07;78.20;;;35.35;;
58982;SDS011;44771;49.982;8.560;2022-12-18T10:32:15;67.97;;;32.30;;
58982;SDS011;44771;49.982;8.560;2022-12-18T10:37:20;71.85;;;32.15;;
58982;SDS011;44771;49.982;8.560;2022-12-18T10:42:23;82.35;;;33.95;;
58982;SDS011;44771;49.982;8.560;2022-12-18T10:47:25;82.95;;;33.97;;
58982;SDS011;44771;49.982;8.560;2022-12-18T10:52:28;76.05;;;33.38;;
58982;SDS011;44771;49.982;8.560;2022-12-18T10:57:31;83.50;;;34.45;;
58982;SDS011;44771;49.982;8.560;2022-12-18T11:02:36;79.40;;;34.05;;
58982;SDS011;44771;49.982;8.560;2022-12-18T11:12:49;52.65;;;27.15;;
58982;SDS011;44771;49.982;8.560;2022-12-18T11:17:51;85.05;;;34.78;;
58982;SDS011;44771;49.982;8.560;2022-12-18T11:22:55;85.68;;;34.50;;
58982;SDS011;44771;49.982;8.560;2022-12-18T11:28:00;84.87;;;34.85;;
58982;SDS011;44771;49.982;8.560;2022-12-18T11:33:04;75.53;;;31.55;;
58982;SDS011;44771;49.982;8.560;2022-12-18T11:38:12;75.90;;;32.40;;
58982;SDS011;44771;49.982;8.560;2022-12-18T11:43:20;83.75;;;33.20;;
58982;SDS011;44771;49.982;8.560;2022-12-18T11:48:29;78.80;;;32.35;;
58982;SDS011;44771;49.982;8.560;2022-12-18T11:53:35;75.93;;;31.00;;
58982;SDS011;44771;49.982;8.560;2022-12-18T11:58:43;68.03;;;31.23;;
58982;SDS011;44771;49.982;8.560;2022-12-18T12:03:55;86.15;;;34.20;;
58982;SDS011;44771;49.982;8.560;2022-12-18T12:09:33;76.22;;;31.02;;
58982;SDS011;44771;49.982;8.560;2022-12-18T12:14:44;77.97;;;30.27;;
58982;SDS011;44771;49.982;8.560;2022-12-18T12:19:55;79.90;;;31.83;;
58982;SDS011;44771;49.982;8.560;2022-12-18T12:25:15;69.15;;;31.27;;
58982;SDS011;44771;49.982;8.560;2022-12-18T12:30:24;80.80;;;33.67;;
58982;SDS011;44771;49.982;8.560;2022-12-18T12:35:38;84.35;;;33.22;;
58982;SDS011;44771;49.982;8.560;2022-12-18T12:40:49;82.57;;;34.80;;
58982;SDS011;44771;49.982;8.560;2022-12-18T12:46:04;95.60;;;33.97;;
58982;SDS011;44771;49.982;8.560;2022-12-18T12:51:09;76.87;;;30.83;;
58982;SDS011;44771;49.982;8.560;2022-12-18T12:56:17;74.43;;;31.08;;
58982;SDS011;44771;49.982;8.560;2022-12-18T13:01:24;77.50;;;32.47;;
58982;SDS011;44771;49.982;8.560;2022-12-18T13:06:33;78.70;;;31.12;;
58982;SDS011;44771;49.982;8.560;2022-12-18T13:11:46;86.50;;;32.90;;
58982;SDS011;44771;49.982;8.560;2022-12-18T13:16:48;80.60;;;31.83;;
58982;SDS011;44771;49.982;8.560;2022-12-18T13:21:54;78.10;;;31.23;;
58982;SDS011;44771;49.982;8.560;2022-12-18T13:26:58;82.32;;;32.38;;
58982;SDS011;44771;49.982;8.560;2022-12-18T13:32:00;81.45;;;35.13;;
58982;SDS011;44771;49.982;8.560;2022-12-18T13:42:44;76.53;;;31.17;;
58982;SDS011;44771;49.982;8.560;2022-12-18T13:47:46;83.57;;;31.63;;
58982;SDS011;44771;49.982;8.560;2022-12-18T13:52:49;86.07;;;31.60;;
58982;SDS011;44771;49.982;8.560;2022-12-18T13:58:03;61.67;;;27.23;;
58982;SDS011;44771;49.982;8.560;2022-12-18T14:03:15;81.45;;;30.77;;
58982;SDS011;44771;49.982;8.560;2022-12-18T14:08:22;98.35;;;32.22;;
58982;SDS011;44771;49.982;8.560;2022-12-18T14:13:30;75.35;;;30.08;;
58982;SDS011;44771;49.982;8.560;2022-12-18T14:18:38;83.35;;;33.63;;
58982;SDS011;44771;49.982;8.560;2022-12-18T14:23:44;75.93;;;30.17;;
58982;SDS011;44771;49.982;8.560;2022-12-18T14:28:47;82.20;;;31.00;;
58982;SDS011;44771;49.982;8.560;2022-12-18T14:33:49;68.03;;;31.23;;
58982;SDS011;44771;49.982;8.560;2022-12-18T14:38:51;70.72;;;28.15;;
58982;SDS011;44771;49.982;8.560;2022-12-18T14:43:56;71.47;;;29.77;;
58982;SDS011;44771;49.982;8.560;2022-12-18T14:49:17;87.35;;;28.87;;
58982;SDS011;44771;49.982;8.560;2022-12-18T14:54:22;81.75;;;31.30;;
58982;SDS011;44771;49.982;8.560;2022-12-18T14:59:26;70.73;;;28.17;;
58982;SDS011;44771;49.982;8.560;2022-12-18T15:04:30;75.57;;;30.50;;
58982;SDS011;44771;49.982;8.560;2022-12-18T15:09:34;81.87;;;31.00;;
58982;SDS011;44771;49.982;8.560;2022-12-18T15:14:40;81.85;;;29.45;;
58982;SDS011;44771;49.982;8.560;2022-12-18T15:19:42;90.57;;;33.60;;
58982;SDS011;44771;49.982;8.560;2022-12-18T15:24:46;59.22;;;28.20;;
58982;SDS011;44771;49.982;8.560;2022-12-18T15:30:00;82.82;;;32.05;;
58982;SDS011;44771;49.982;8.560;2022-12-18T15:35:08;80.12;;;31.30;;
58982;SDS011;44771;49.982;8.560;2022-12-18T15:40:14;68.85;;;29.98;;
58982;SDS011;44771;49.982;8.560;2022-12-18T15:45:19;89.07;;;32.60;;
58982;SDS011;44771;49.982;8.560;2022-12-18T15:50:22;84.50;;;30.77;;
58982;SDS011;44771;49.982;8.560;2022-12-18T15:55:24;75.47;;;30.85;;
58982;SDS011;44771;49.982;8.560;2022-12-18T16:00:27;80.07;;;31.08;;
58982;SDS011;44771;49.982;8.560;2022-12-18T16:05:29;75.80;;;31.60;;
58982;SDS011;44771;49.982;8.560;2022-12-18T16:10:31;83.37;;;29.67;;
58982;SDS011;44771;49.982;8.560;2022-12-18T16:15:34;81.93;;;32.70;;
58982;SDS011;44771;49.982;8.560;2022-12-18T16:20:36;78.80;;;31.53;;
58982;SDS011;44771;49.982;8.560;2022-12-18T16:25:39;82.50;;;32.43;;
58982;SDS011;44771;49.982;8.560;2022-12-18T16:30:42;96.63;;;34.25;;
58982;SDS011;44771;49.982;8.560;2022-12-18T16:35:50;84.20;;;32.70;;
58982;SDS011;44771;49.982;8.560;2022-12-18T16:40:52;87.85;;;32.75;;
58982;SDS011;44771;49.982;8.560;2022-12-18T16:45:55;86.50;;;29.83;;
58982;SDS011;44771;49.982;8.560;2022-12-18T16:51:00;87.12;;;34.45;;
58982;SDS011;44771;49.982;8.560;2022-12-18T16:56:03;83.45;;;30.98;;
58982;SDS011;44771;49.982;8.560;2022-12-18T17:01:08;80.43;;;33.05;;
58982;SDS011;44771;49.982;8.560;2022-12-18T17:06:10;97.82;;;35.63;;
58982;SDS011;44771;49.982;8.560;2022-12-18T17:11:12;77.03;;;30.73;;
58982;SDS011;44771;49.982;8.560;2022-12-18T17:16:15;85.93;;;32.80;;
58982;SDS011;44771;49.982;8.560;2022-12-18T17:21:17;103.12;;;34.95;;
58982;SDS011;44771;49.982;8.560;2022-12-18T17:26:19;92.37;;;35.25;;
58982;SDS011;44771;49.982;8.560;2022-12-18T17:31:23;100.20;;;33.17;;
58982;SDS011;44771;49.982;8.560;2022-12-18T17:36:26;87.35;;;33.97;;
58982;SDS011;44771;49.982;8.560;2022-12-18T17:41:28;81.45;;;30.90;;
58982;SDS011;44771;49.982;8.560;2022-12-18T17:46:32;97.43;;;33.75;;
58982;SDS011;44771;49.982;8.560;2022-12-18T17:51:34;81.57;;;33.03;;
58982;SDS011;44771;49.982;8.560;2022-12-18T17:56:36;87.00;;;34.55;;
58982;SDS011;44771;49.982;8.560;2022-12-18T18:01:39;91.20;;;32.83;;
58982;SDS011;44771;49.982;8.560;2022-12-18T18:06:48;83.68;;;33.33;;
58982;SDS011;44771;49.982;8.560;2022-12-18T18:16:54;76.90;;;34.70;;
58982;SDS011;44771;49.982;8.560;2022-12-18T18:21:57;79.82;;;32.63;;
58982;SDS011;44771;49.982;8.560;2022-12-18T18:26:59;96.03;;;34.58;;
58982;SDS011;44771;49.982;8.560;2022-12-18T18:32:02;87.10;;;32.25;;
58982;SDS011;44771;49.982;8.560;2022-12-18T18:37:05;81.05;;;31.85;;
58982;SDS011;44771;49.982;8.560;2022-12-18T18:42:06;81.75;;;33.35;;
58982;SDS011;44771;49.982;8.560;2022-12-18T18:47:09;95.57;;;33.58;;
58982;SDS011;44771;49.982;8.560;2022-12-18T18:52:11;91.78;;;35.83;;
58982;SDS011;44771;49.982;8.560;2022-12-18T18:57:13;80.82;;;34.63;;
58982;SDS011;44771;49.982;8.560;2022-12-18T19:02:32;101.47;;;36.53;;
58982;SDS011;44771;49.982;8.560;2022-12-18T19:07:33;96.53;;;36.30;;
58982;SDS011;44771;49.982;8.560;2022-12-18T19:12:35;87.12;;;33.67;;
58982;SDS011;44771;49.982;8.560;2022-12-18T19:17:40;82.50;;;34.10;;
58982;SDS011;44771;49.982;8.560;2022-12-18T19:22:47;88.20;;;33.47;;
58982;SDS011;44771;49.982;8.560;2022-12-18T19:27:56;96.60;;;34.30;;
58982;SDS011;44771;49.982;8.560;2022-12-18T19:32:59;88.35;;;32.53;;
58982;SDS011;44771;49.982;8.560;2022-12-18T19:38:21;92.68;;;35.70;;
58982;SDS011;44771;49.982;8.560;2022-12-18T19:43:22;84.80;;;34.65;;
58982;SDS011;44771;49.982;8.560;2022-12-18T19:48:25;89.87;;;35.65;;
58982;SDS011;44771;49.982;8.560;2022-12-18T19:53:27;96.10;;;38.22;;
58982;SDS011;44771;49.982;8.560;2022-12-18T19:58:29;100.75;;;36.47;;
58982;SDS011;44771;49.982;8.560;2022-12-18T20:03:32;91.93;;;35.85;;
58982;SDS011;44771;49.982;8.560;2022-12-18T20:08:34;96.93;;;36.55;;
58982;SDS011;44771;49.982;8.560;2022-12-18T20:13:36;96.20;;;34.60;;
58982;SDS011;44771;49.982;8.560;2022-12-18T20:18:39;93.70;;;36.97;;
58982;SDS011;44771;49.982;8.560;2022-12-18T20:23:41;112.20;;;36.10;;
58982;SDS011;44771;49.982;8.560;2022-12-18T20:28:44;95.78;;;36.15;;
58982;SDS011;44771;49.982;8.560;2022-12-18T20:33:47;83.78;;;33.72;;
58982;SDS011;44771;49.982;8.560;2022-12-18T20:38:52;92.15;;;33.92;;
58982;SDS011;44771;49.982;8.560;2022-12-18T20:43:58;82.03;;;31.12;;
58982;SDS011;44771;49.982;8.560;2022-12-18T20:49:01;98.20;;;35.55;;
58982;SDS011;44771;49.982;8.560;2022-12-18T20:54:03;87.12;;;31.40;;
58982;SDS011;44771;49.982;8.560;2022-12-18T20:59:10;91.60;;;33.15;;
58982;SDS011;44771;49.982;8.560;2022-12-18T21:04:13;89.57;;;32.97;;
58982;SDS011;44771;49.982;8.560;2022-12-18T21:09:17;101.75;;;35.25;;
58982;SDS011;44771;49.982;8.560;2022-12-18T21:14:20;99.45;;;34.47;;
58982;SDS011;44771;49.982;8.560;2022-12-18T21:19:25;90.93;;;32.20;;
58982;SDS011;44771;49.982;8.560;2022-12-18T21:24:28;90.53;;;31.40;;
58982;SDS011;44771;49.982;8.560;2022-12-18T21:29:33;86.57;;;33.38;;
58982;SDS011;44771;49.982;8.560;2022-12-18T21:34:36;94.20;;;36.63;;
58982;SDS011;44771;49.982;8.560;2022-12-18T21:39:38;104.07;;;36.53;;
58982;SDS011;44771;49.982;8.560;2022-12-18T21:44:40;103.78;;;37.53;;
58982;SDS011;44771;49.982;8.560;2022-12-18T21:49:44;89.05;;;34.42;;
58982;SDS011;44771;49.982;8.560;2022-12-18T21:54:48;99.25;;;36.65;;
58982;SDS011;44771;49.982;8.560;2022-12-18T21:59:50;89.55;;;34.83;;
58982;SDS011;44771;49.982;8.560;2022-12-18T22:04:53;75.45;;;31.30;;
58982;SDS011;44771;49.982;8.560;2022-12-18T22:09:56;91.85;;;33.67;;
58982;SDS011;44771;49.982;8.560;2022-12-18T22:14:59;74.80;;;31.47;;
58982;SDS011;44771;49.982;8.560;2022-12-18T22:20:03;85.38;;;33.70;;
58982;SDS011;44771;49.982;8.560;2022-12-18T22:25:06;87.03;;;34.35;;
58982;SDS011;44771;49.982;8.560;2022-12-18T22:30:09;89.32;;;33.55;;
58982;SDS011;44771;49.982;8.560;2022-12-18T22:35:13;88.75;;;32.42;;
58982;SDS011;44771;49.982;8.560;2022-12-18T22:40:16;74.37;;;29.30;;
58982;SDS011;44771;49.982;8.560;2022-12-18T22:45:25;77.55;;;31.45;;
58982;SDS011;44771;49.982;8.560;2022-12-18T22:50:28;87.32;;;34.85;;
58982;SDS011;44771;49.982;8.560;2022-12-18T22:55:30;82.55;;;33.40;;
58982;SDS011;44771;49.982;8.560;2022-12-18T23:00:32;77.32;;;31.23;;
58982;SDS011;44771;49.982;8.560;2022-12-18T23:05:35;78.47;;;34.00;;
58982;SDS011;44771;49.982;8.560;2022-12-18T23:10:36;88.93;;;30.73;;
58982;SDS011;44771;49.982;8.560;2022-12-18T23:15:39;68.75;;;29.50;;
58982;SDS011;44771;49.982;8.560;2022-12-18T23:20:43;75.57;;;32.20;;
58982;SDS011;44771;49.982;8.560;2022-12-18T23:25:46;78.22;;;31.02;;
58982;SDS011;44771;49.982;8.560;2022-12-18T23:30:48;78.95;;;31.23;;
58982;SDS011;44771;49.982;8.560;2022-12-18T23:35:54;84.78;;;29.50;;
58982;SDS011;44771;49.982;8.560;2022-12-18T23:40:58;65.65;;;29.23;;
58982;SDS011;44771;49.982;8.560;2022-12-18T23:46:00;92.28;;;32.55;;
58982;SDS011;44771;49.982;8.560;2022-12-18T23:51:04;71.00;;;31.25;;
58982;SDS011;44771;49.982;8.560;2022-12-18T23:56:07;67.78;;;29.00;;
